sensor_id;sensor_type;location;lat;lon;timestamp;temperature;humidity
19734;DHT22;10018;51.230;7.860;2023-05-10T00:00:45;13.20;99.90
19734;DHT22;10018;51.230;7.860;2023-05-10T00:03:10;13.10;99.90
19734;DHT22;10018;51.230;7.860;2023-05-10T00:05:36;13.10;99.90
19734;DHT22;10018;51.230;7.860;2023-05-10T00:08:01;13.00;99.90
19734;DHT22;10018;51.230;7.860;2023-05-10T00:10:27;13.00;99.90
19734;DHT22;10018;51.230;7.860;2023-05-10T00:12:52;13.00;99.90
19734;DHT22;10018;51.230;7.860;2023-05-10T00:15:18;13.00;99.90
19734;DHT22;10018;51.230;7.860;2023-05-10T00:17:43;13.00;99.90
19734;DHT22;10018;51.230;7.860;2023-05-10T00:20:10;13.00;99.90
19734;DHT22;10018;51.230;7.860;2023-05-10T00:22:35;13.00;99.90
19734;DHT22;10018;51.230;7.860;2023-05-10T00:25:01;13.00;99.90
19734;DHT22;10018;51.230;7.860;2023-05-10T00:27:27;13.00;99.90
19734;DHT22;10018;51.230;7.860;2023-05-10T00:29:54;13.00;99.90
19734;DHT22;10018;51.230;7.860;2023-05-10T00:32:20;13.00;99.90
19734;DHT22;10018;51.230;7.860;2023-05-10T00:34:48;13.00;99.90
19734;DHT22;10018;51.230;7.860;2023-05-10T00:37:13;13.10;99.90
19734;DHT22;10018;51.230;7.860;2023-05-10T00:39:39;13.10;99.90
19734;DHT22;10018;51.230;7.860;2023-05-10T00:42:05;13.10;99.90
19734;DHT22;10018;51.230;7.860;2023-05-10T00:44:35;13.00;99.90
19734;DHT22;10018;51.230;7.860;2023-05-10T00:47:01;13.10;99.90
19734;DHT22;10018;51.230;7.860;2023-05-10T00:49:27;13.10;99.90
19734;DHT22;10018;51.230;7.860;2023-05-10T00:51:53;13.00;99.90
19734;DHT22;10018;51.230;7.860;2023-05-10T00:54:19;13.00;99.90
19734;DHT22;10018;51.230;7.860;2023-05-10T00:56:45;13.00;99.90
19734;DHT22;10018;51.230;7.860;2023-05-10T00:59:15;13.00;99.90
19734;DHT22;10018;51.230;7.860;2023-05-10T01:01:42;13.00;99.90
19734;DHT22;10018;51.230;7.860;2023-05-10T01:04:09;13.00;99.90
19734;DHT22;10018;51.230;7.860;2023-05-10T01:06:36;13.00;99.90
19734;DHT22;10018;51.230;7.860;2023-05-10T01:12:51;13.00;99.90
19734;DHT22;10018;51.230;7.860;2023-05-10T01:15:17;13.00;99.90
19734;DHT22;10018;51.230;7.860;2023-05-10T01:17:44;13.00;99.90
19734;DHT22;10018;51.230;7.860;2023-05-10T01:20:12;13.10;99.90
19734;DHT22;10018;51.230;7.860;2023-05-10T01:22:58;13.00;99.90
19734;DHT22;10018;51.230;7.860;2023-05-10T01:28:19;13.00;99.90
19734;DHT22;10018;51.230;7.860;2023-05-10T01:33:39;13.00;99.90
19734;DHT22;10018;51.230;7.860;2023-05-10T01:39:16;13.00;99.90
19734;DHT22;10018;51.230;7.860;2023-05-10T01:42:02;13.00;99.90
19734;DHT22;10018;51.230;7.860;2023-05-10T01:47:17;13.00;99.90
19734;DHT22;10018;51.230;7.860;2023-05-10T01:49:50;13.00;99.90
19734;DHT22;10018;51.230;7.860;2023-05-10T01:52:18;13.00;99.90
19734;DHT22;10018;51.230;7.860;2023-05-10T01:55:00;13.00;99.90
19734;DHT22;10018;51.230;7.860;2023-05-10T01:57:33;13.00;99.90
19734;DHT22;10018;51.230;7.860;2023-05-10T02:00:00;13.00;99.90
19734;DHT22;10018;51.230;7.860;2023-05-10T02:02:28;13.00;99.90
19734;DHT22;10018;51.230;7.860;2023-05-10T02:04:56;13.00;99.90
19734;DHT22;10018;51.230;7.860;2023-05-10T02:07:25;13.00;99.90
19734;DHT22;10018;51.230;7.860;2023-05-10T02:09:52;13.00;99.90
19734;DHT22;10018;51.230;7.860;2023-05-10T02:12:18;13.00;99.90
19734;DHT22;10018;51.230;7.860;2023-05-10T02:14:46;13.00;99.90
19734;DHT22;10018;51.230;7.860;2023-05-10T02:17:13;12.90;99.90
19734;DHT22;10018;51.230;7.860;2023-05-10T02:19:41;12.90;99.90
19734;DHT22;10018;51.230;7.860;2023-05-10T02:22:10;12.90;99.90
19734;DHT22;10018;51.230;7.860;2023-05-10T02:24:36;12.80;99.90
19734;DHT22;10018;51.230;7.860;2023-05-10T02:27:03;12.80;99.90
19734;DHT22;10018;51.230;7.860;2023-05-10T02:29:31;12.80;99.90
19734;DHT22;10018;51.230;7.860;2023-05-10T02:31:58;12.80;99.90
19734;DHT22;10018;51.230;7.860;2023-05-10T02:34:26;12.80;99.90
19734;DHT22;10018;51.230;7.860;2023-05-10T02:36:54;12.80;99.90
19734;DHT22;10018;51.230;7.860;2023-05-10T02:39:21;12.80;99.90
19734;DHT22;10018;51.230;7.860;2023-05-10T02:41:48;12.70;99.90
19734;DHT22;10018;51.230;7.860;2023-05-10T02:44:18;12.80;99.90
19734;DHT22;10018;51.230;7.860;2023-05-10T02:46:44;12.80;99.90
19734;DHT22;10018;51.230;7.860;2023-05-10T02:49:10;12.80;99.90
19734;DHT22;10018;51.230;7.860;2023-05-10T02:51:40;12.80;99.90
19734;DHT22;10018;51.230;7.860;2023-05-10T02:54:10;12.80;99.90
19734;DHT22;10018;51.230;7.860;2023-05-10T02:56:42;12.80;99.90
19734;DHT22;10018;51.230;7.860;2023-05-10T02:59:12;12.80;99.90
19734;DHT22;10018;51.230;7.860;2023-05-10T03:01:38;12.80;99.90
19734;DHT22;10018;51.230;7.860;2023-05-10T03:04:03;12.80;99.90
19734;DHT22;10018;51.230;7.860;2023-05-10T03:06:31;12.80;99.90
19734;DHT22;10018;51.230;7.860;2023-05-10T03:08:57;12.80;99.90
19734;DHT22;10018;51.230;7.860;2023-05-10T03:11:36;12.80;99.90
19734;DHT22;10018;51.230;7.860;2023-05-10T03:16:46;12.80;99.90
19734;DHT22;10018;51.230;7.860;2023-05-10T03:19:24;12.70;99.90
19734;DHT22;10018;51.230;7.860;2023-05-10T03:21:53;12.80;99.90
19734;DHT22;10018;51.230;7.860;2023-05-10T03:24:21;12.70;99.90
19734;DHT22;10018;51.230;7.860;2023-05-10T03:26:48;12.70;99.90
19734;DHT22;10018;51.230;7.860;2023-05-10T03:29:17;12.70;99.90
19734;DHT22;10018;51.230;7.860;2023-05-10T03:31:45;12.80;99.90
19734;DHT22;10018;51.230;7.860;2023-05-10T03:34:11;12.80;99.90
19734;DHT22;10018;51.230;7.860;2023-05-10T03:36:36;12.80;99.90
19734;DHT22;10018;51.230;7.860;2023-05-10T03:39:02;12.80;99.90
19734;DHT22;10018;51.230;7.860;2023-05-10T03:41:28;12.70;99.90
19734;DHT22;10018;51.230;7.860;2023-05-10T03:43:54;12.80;99.90
19734;DHT22;10018;51.230;7.860;2023-05-10T03:46:19;12.80;99.90
19734;DHT22;10018;51.230;7.860;2023-05-10T03:48:45;12.70;99.90
19734;DHT22;10018;51.230;7.860;2023-05-10T03:51:13;12.70;99.90
19734;DHT22;10018;51.230;7.860;2023-05-10T03:53:38;12.80;99.90
19734;DHT22;10018;51.230;7.860;2023-05-10T03:56:04;12.70;99.90
19734;DHT22;10018;51.230;7.860;2023-05-10T03:58:29;12.80;99.90
19734;DHT22;10018;51.230;7.860;2023-05-10T04:00:55;12.80;99.90
19734;DHT22;10018;51.230;7.860;2023-05-10T04:03:23;12.80;99.90
19734;DHT22;10018;51.230;7.860;2023-05-10T04:05:59;12.80;99.90
19734;DHT22;10018;51.230;7.860;2023-05-10T04:08:25;12.80;99.90
19734;DHT22;10018;51.230;7.860;2023-05-10T04:10:51;12.80;99.90
19734;DHT22;10018;51.230;7.860;2023-05-10T04:13:16;12.80;99.90
19734;DHT22;10018;51.230;7.860;2023-05-10T04:15:44;12.80;99.90
19734;DHT22;10018;51.230;7.860;2023-05-10T04:18:10;12.80;99.90
19734;DHT22;10018;51.230;7.860;2023-05-10T04:20:35;12.70;99.90
19734;DHT22;10018;51.230;7.860;2023-05-10T04:23:01;12.70;99.90
19734;DHT22;10018;51.230;7.860;2023-05-10T04:25:29;12.70;99.90
19734;DHT22;10018;51.230;7.860;2023-05-10T04:27:55;12.80;99.90
19734;DHT22;10018;51.230;7.860;2023-05-10T04:30:20;12.80;99.90
19734;DHT22;10018;51.230;7.860;2023-05-10T04:32:46;12.80;99.90
19734;DHT22;10018;51.230;7.860;2023-05-10T04:35:12;12.80;99.90
19734;DHT22;10018;51.230;7.860;2023-05-10T04:37:37;12.80;99.90
19734;DHT22;10018;51.230;7.860;2023-05-10T04:40:03;12.80;99.90
19734;DHT22;10018;51.230;7.860;2023-05-10T04:42:29;12.80;99.90
19734;DHT22;10018;51.230;7.860;2023-05-10T04:44:54;12.80;99.90
19734;DHT22;10018;51.230;7.860;2023-05-10T04:47:20;12.80;99.90
19734;DHT22;10018;51.230;7.860;2023-05-10T04:49:45;12.80;99.90
19734;DHT22;10018;51.230;7.860;2023-05-10T04:52:11;12.90;99.90
19734;DHT22;10018;51.230;7.860;2023-05-10T04:54:37;12.90;99.90
19734;DHT22;10018;51.230;7.860;2023-05-10T04:57:02;12.90;99.90
19734;DHT22;10018;51.230;7.860;2023-05-10T04:59:28;12.90;99.90
19734;DHT22;10018;51.230;7.860;2023-05-10T05:01:53;13.00;99.90
19734;DHT22;10018;51.230;7.860;2023-05-10T05:04:19;12.90;99.90
19734;DHT22;10018;51.230;7.860;2023-05-10T05:06:44;13.00;99.90
19734;DHT22;10018;51.230;7.860;2023-05-10T05:09:10;13.00;99.90
19734;DHT22;10018;51.230;7.860;2023-05-10T05:11:36;13.00;99.90
19734;DHT22;10018;51.230;7.860;2023-05-10T05:14:01;13.00;99.90
19734;DHT22;10018;51.230;7.860;2023-05-10T05:16:27;12.90;99.90
19734;DHT22;10018;51.230;7.860;2023-05-10T05:18:55;13.00;99.90
19734;DHT22;10018;51.230;7.860;2023-05-10T05:21:21;13.00;99.90
19734;DHT22;10018;51.230;7.860;2023-05-10T05:23:47;12.90;99.90
19734;DHT22;10018;51.230;7.860;2023-05-10T05:26:15;12.90;99.90
19734;DHT22;10018;51.230;7.860;2023-05-10T05:28:41;12.90;99.90
19734;DHT22;10018;51.230;7.860;2023-05-10T05:31:07;13.00;99.90
19734;DHT22;10018;51.230;7.860;2023-05-10T05:33:33;13.00;99.90
19734;DHT22;10018;51.230;7.860;2023-05-10T05:36:03;13.00;99.90
19734;DHT22;10018;51.230;7.860;2023-05-10T05:38:29;13.00;99.90
19734;DHT22;10018;51.230;7.860;2023-05-10T05:40:54;13.00;99.90
19734;DHT22;10018;51.230;7.860;2023-05-10T05:43:20;13.10;99.90
19734;DHT22;10018;51.230;7.860;2023-05-10T05:45:48;13.10;99.90
19734;DHT22;10018;51.230;7.860;2023-05-10T05:48:14;13.10;99.90
19734;DHT22;10018;51.230;7.860;2023-05-10T05:50:39;13.10;99.90
19734;DHT22;10018;51.230;7.860;2023-05-10T05:53:07;13.20;99.90
19734;DHT22;10018;51.230;7.860;2023-05-10T05:55:33;13.20;99.90
19734;DHT22;10018;51.230;7.860;2023-05-10T05:57:59;13.20;99.90
19734;DHT22;10018;51.230;7.860;2023-05-10T06:00:24;13.20;99.90
19734;DHT22;10018;51.230;7.860;2023-05-10T06:02:51;13.20;99.90
19734;DHT22;10018;51.230;7.860;2023-05-10T06:05:16;13.20;99.90
19734;DHT22;10018;51.230;7.860;2023-05-10T06:07:45;13.20;99.90
19734;DHT22;10018;51.230;7.860;2023-05-10T06:10:11;13.30;99.90
19734;DHT22;10018;51.230;7.860;2023-05-10T06:12:36;13.30;99.90
19734;DHT22;10018;51.230;7.860;2023-05-10T06:15:03;13.40;99.90
19734;DHT22;10018;51.230;7.860;2023-05-10T06:17:29;13.30;99.90
19734;DHT22;10018;51.230;7.860;2023-05-10T06:19:55;13.30;99.90
19734;DHT22;10018;51.230;7.860;2023-05-10T06:22:21;13.30;99.90
19734;DHT22;10018;51.230;7.860;2023-05-10T06:24:49;13.20;99.90
19734;DHT22;10018;51.230;7.860;2023-05-10T06:27:15;13.20;99.90
19734;DHT22;10018;51.230;7.860;2023-05-10T06:29:40;13.20;99.90
19734;DHT22;10018;51.230;7.860;2023-05-10T06:32:06;13.30;99.90
19734;DHT22;10018;51.230;7.860;2023-05-10T06:34:32;13.30;99.90
19734;DHT22;10018;51.230;7.860;2023-05-10T06:37:00;13.30;99.90
19734;DHT22;10018;51.230;7.860;2023-05-10T06:39:25;13.40;99.90
19734;DHT22;10018;51.230;7.860;2023-05-10T06:41:53;13.50;99.90
19734;DHT22;10018;51.230;7.860;2023-05-10T06:44:21;13.60;99.90
19734;DHT22;10018;51.230;7.860;2023-05-10T06:46:47;13.60;99.90
19734;DHT22;10018;51.230;7.860;2023-05-10T06:49:13;13.80;99.90
19734;DHT22;10018;51.230;7.860;2023-05-10T06:51:38;13.90;99.90
19734;DHT22;10018;51.230;7.860;2023-05-10T06:54:04;14.00;99.90
19734;DHT22;10018;51.230;7.860;2023-05-10T06:56:29;14.10;99.90
19734;DHT22;10018;51.230;7.860;2023-05-10T06:58:55;14.20;99.90
19734;DHT22;10018;51.230;7.860;2023-05-10T07:01:21;14.40;99.90
19734;DHT22;10018;51.230;7.860;2023-05-10T07:03:46;14.50;99.90
19734;DHT22;10018;51.230;7.860;2023-05-10T07:06:12;14.50;99.90
19734;DHT22;10018;51.230;7.860;2023-05-10T07:08:38;14.60;99.90
19734;DHT22;10018;51.230;7.860;2023-05-10T07:11:05;14.70;99.90
19734;DHT22;10018;51.230;7.860;2023-05-10T07:13:32;14.80;99.90
19734;DHT22;10018;51.230;7.860;2023-05-10T07:16:01;15.10;99.90
19734;DHT22;10018;51.230;7.860;2023-05-10T07:18:29;15.20;99.90
19734;DHT22;10018;51.230;7.860;2023-05-10T07:20:55;15.30;99.90
19734;DHT22;10018;51.230;7.860;2023-05-10T07:23:21;15.40;99.90
19734;DHT22;10018;51.230;7.860;2023-05-10T07:25:48;15.40;99.90
19734;DHT22;10018;51.230;7.860;2023-05-10T07:28:15;15.30;99.90
19734;DHT22;10018;51.230;7.860;2023-05-10T07:30:41;15.00;99.90
19734;DHT22;10018;51.230;7.860;2023-05-10T07:33:08;14.90;99.90
19734;DHT22;10018;51.230;7.860;2023-05-10T07:35:34;14.80;99.90
19734;DHT22;10018;51.230;7.860;2023-05-10T07:38:00;14.70;99.90
19734;DHT22;10018;51.230;7.860;2023-05-10T07:40:26;14.70;99.90
19734;DHT22;10018;51.230;7.860;2023-05-10T07:42:52;14.60;99.90
19734;DHT22;10018;51.230;7.860;2023-05-10T07:45:17;14.50;99.90
19734;DHT22;10018;51.230;7.860;2023-05-10T07:47:43;14.40;99.90
19734;DHT22;10018;51.230;7.860;2023-05-10T07:50:09;14.40;99.90
19734;DHT22;10018;51.230;7.860;2023-05-10T07:52:35;14.50;99.90
19734;DHT22;10018;51.230;7.860;2023-05-10T07:55:00;14.50;99.90
19734;DHT22;10018;51.230;7.860;2023-05-10T07:57:26;14.60;99.90
19734;DHT22;10018;51.230;7.860;2023-05-10T07:59:51;14.50;99.90
19734;DHT22;10018;51.230;7.860;2023-05-10T08:02:17;14.50;99.90
19734;DHT22;10018;51.230;7.860;2023-05-10T08:04:42;14.60;99.90
19734;DHT22;10018;51.230;7.860;2023-05-10T08:07:10;14.60;99.90
19734;DHT22;10018;51.230;7.860;2023-05-10T08:09:36;14.60;99.90
19734;DHT22;10018;51.230;7.860;2023-05-10T08:12:02;14.70;99.90
19734;DHT22;10018;51.230;7.860;2023-05-10T08:14:28;14.80;99.90
19734;DHT22;10018;51.230;7.860;2023-05-10T08:16:56;15.00;99.90
19734;DHT22;10018;51.230;7.860;2023-05-10T08:19:24;15.30;99.90
19734;DHT22;10018;51.230;7.860;2023-05-10T08:21:50;15.40;99.90
19734;DHT22;10018;51.230;7.860;2023-05-10T08:24:16;15.50;99.90
19734;DHT22;10018;51.230;7.860;2023-05-10T08:26:41;15.60;99.90
19734;DHT22;10018;51.230;7.860;2023-05-10T08:29:07;15.60;99.90
19734;DHT22;10018;51.230;7.860;2023-05-10T08:31:32;15.70;99.90
19734;DHT22;10018;51.230;7.860;2023-05-10T08:33:58;15.90;99.90
19734;DHT22;10018;51.230;7.860;2023-05-10T08:36:26;16.20;99.90
19734;DHT22;10018;51.230;7.860;2023-05-10T08:38:53;16.40;99.90
19734;DHT22;10018;51.230;7.860;2023-05-10T08:41:22;16.90;99.90
19734;DHT22;10018;51.230;7.860;2023-05-10T08:43:50;17.30;99.90
19734;DHT22;10018;51.230;7.860;2023-05-10T08:46:18;17.30;99.90
19734;DHT22;10018;51.230;7.860;2023-05-10T08:48:47;17.20;99.90
19734;DHT22;10018;51.230;7.860;2023-05-10T08:51:18;16.90;99.90
19734;DHT22;10018;51.230;7.860;2023-05-10T08:53:44;16.60;99.90
19734;DHT22;10018;51.230;7.860;2023-05-10T08:56:13;16.30;99.90
19734;DHT22;10018;51.230;7.860;2023-05-10T08:58:38;16.20;99.90
19734;DHT22;10018;51.230;7.860;2023-05-10T09:01:05;16.10;99.90
19734;DHT22;10018;51.230;7.860;2023-05-10T09:03:33;16.10;99.90
19734;DHT22;10018;51.230;7.860;2023-05-10T09:06:01;16.30;99.90
19734;DHT22;10018;51.230;7.860;2023-05-10T09:08:27;16.30;99.90
19734;DHT22;10018;51.230;7.860;2023-05-10T09:10:54;16.50;99.90
19734;DHT22;10018;51.230;7.860;2023-05-10T09:13:21;16.60;99.90
19734;DHT22;10018;51.230;7.860;2023-05-10T09:15:47;16.80;99.90
19734;DHT22;10018;51.230;7.860;2023-05-10T09:18:13;16.80;99.90
19734;DHT22;10018;51.230;7.860;2023-05-10T09:20:39;16.60;99.90
19734;DHT22;10018;51.230;7.860;2023-05-10T09:23:05;16.50;99.90
19734;DHT22;10018;51.230;7.860;2023-05-10T09:25:31;16.60;99.90
19734;DHT22;10018;51.230;7.860;2023-05-10T09:27:59;16.60;99.90
19734;DHT22;10018;51.230;7.860;2023-05-10T09:30:26;16.70;99.90
19734;DHT22;10018;51.230;7.860;2023-05-10T09:32:54;16.80;99.90
19734;DHT22;10018;51.230;7.860;2023-05-10T09:35:21;16.80;99.90
19734;DHT22;10018;51.230;7.860;2023-05-10T09:37:50;16.70;99.90
19734;DHT22;10018;51.230;7.860;2023-05-10T09:40:27;16.70;99.90
19734;DHT22;10018;51.230;7.860;2023-05-10T09:43:01;16.60;99.90
19734;DHT22;10018;51.230;7.860;2023-05-10T09:45:32;16.50;99.90
19734;DHT22;10018;51.230;7.860;2023-05-10T09:47:58;16.30;99.90
19734;DHT22;10018;51.230;7.860;2023-05-10T09:50:25;16.20;99.90
19734;DHT22;10018;51.230;7.860;2023-05-10T09:52:55;16.40;99.90
19734;DHT22;10018;51.230;7.860;2023-05-10T09:55:26;16.60;99.90
19734;DHT22;10018;51.230;7.860;2023-05-10T09:58:05;16.70;99.90
19734;DHT22;10018;51.230;7.860;2023-05-10T10:00:39;16.80;99.90
19734;DHT22;10018;51.230;7.860;2023-05-10T10:03:18;16.70;99.90
19734;DHT22;10018;51.230;7.860;2023-05-10T10:05:44;16.70;99.90
19734;DHT22;10018;51.230;7.860;2023-05-10T10:08:12;16.80;99.90
19734;DHT22;10018;51.230;7.860;2023-05-10T10:10:39;16.80;99.90
19734;DHT22;10018;51.230;7.860;2023-05-10T10:13:06;16.70;99.90
19734;DHT22;10018;51.230;7.860;2023-05-10T10:15:33;16.70;99.90
19734;DHT22;10018;51.230;7.860;2023-05-10T10:18:04;16.80;99.90
19734;DHT22;10018;51.230;7.860;2023-05-10T10:20:31;17.00;99.90
19734;DHT22;10018;51.230;7.860;2023-05-10T10:22:56;17.00;99.90
19734;DHT22;10018;51.230;7.860;2023-05-10T10:25:22;17.00;99.90
19734;DHT22;10018;51.230;7.860;2023-05-10T10:30:37;17.00;99.90
19734;DHT22;10018;51.230;7.860;2023-05-10T10:35:58;17.10;99.90
19734;DHT22;10018;51.230;7.860;2023-05-10T10:38:25;17.00;99.90
19734;DHT22;10018;51.230;7.860;2023-05-10T10:41:33;16.90;99.90
19734;DHT22;10018;51.230;7.860;2023-05-10T10:49:25;16.90;99.90
19734;DHT22;10018;51.230;7.860;2023-05-10T10:54:38;17.30;99.90
19734;DHT22;10018;51.230;7.860;2023-05-10T10:57:14;17.60;99.90
19734;DHT22;10018;51.230;7.860;2023-05-10T10:59:43;17.80;99.90
19734;DHT22;10018;51.230;7.860;2023-05-10T11:02:33;17.90;99.90
19734;DHT22;10018;51.230;7.860;2023-05-10T11:04:59;17.80;99.90
19734;DHT22;10018;51.230;7.860;2023-05-10T11:07:26;17.70;99.90
19734;DHT22;10018;51.230;7.860;2023-05-10T11:09:51;17.50;99.90
19734;DHT22;10018;51.230;7.860;2023-05-10T11:12:17;17.50;99.90
19734;DHT22;10018;51.230;7.860;2023-05-10T11:14:43;17.60;99.90
19734;DHT22;10018;51.230;7.860;2023-05-10T11:17:29;17.80;99.90
19734;DHT22;10018;51.230;7.860;2023-05-10T11:20:14;18.00;99.90
19734;DHT22;10018;51.230;7.860;2023-05-10T11:22:50;18.20;99.90
19734;DHT22;10018;51.230;7.860;2023-05-10T11:25:17;18.20;99.90
19734;DHT22;10018;51.230;7.860;2023-05-10T11:27:42;18.00;99.90
19734;DHT22;10018;51.230;7.860;2023-05-10T11:30:10;17.80;99.90
19734;DHT22;10018;51.230;7.860;2023-05-10T11:32:40;17.20;99.90
19734;DHT22;10018;51.230;7.860;2023-05-10T11:35:10;16.80;99.90
19734;DHT22;10018;51.230;7.860;2023-05-10T11:37:41;16.60;99.90
19734;DHT22;10018;51.230;7.860;2023-05-10T11:40:09;16.30;99.90
19734;DHT22;10018;51.230;7.860;2023-05-10T11:42:38;16.20;99.90
19734;DHT22;10018;51.230;7.860;2023-05-10T11:45:04;16.10;99.90
19734;DHT22;10018;51.230;7.860;2023-05-10T11:47:30;16.20;99.90
19734;DHT22;10018;51.230;7.860;2023-05-10T11:49:57;16.20;99.90
19734;DHT22;10018;51.230;7.860;2023-05-10T11:52:23;16.10;99.90
19734;DHT22;10018;51.230;7.860;2023-05-10T11:54:52;16.10;99.90
19734;DHT22;10018;51.230;7.860;2023-05-10T11:57:26;16.20;99.90
19734;DHT22;10018;51.230;7.860;2023-05-10T11:59:56;16.10;99.90
19734;DHT22;10018;51.230;7.860;2023-05-10T12:02:24;16.30;99.90
19734;DHT22;10018;51.230;7.860;2023-05-10T12:04:50;16.30;99.90
19734;DHT22;10018;51.230;7.860;2023-05-10T12:07:17;16.40;99.90
19734;DHT22;10018;51.230;7.860;2023-05-10T12:10:03;16.50;99.90
19734;DHT22;10018;51.230;7.860;2023-05-10T12:12:43;16.60;99.90
19734;DHT22;10018;51.230;7.860;2023-05-10T12:15:17;16.80;99.90
19734;DHT22;10018;51.230;7.860;2023-05-10T12:17:44;16.90;99.90
19734;DHT22;10018;51.230;7.860;2023-05-10T12:22:50;16.80;99.90
19734;DHT22;10018;51.230;7.860;2023-05-10T12:25:18;16.70;99.90
19734;DHT22;10018;51.230;7.860;2023-05-10T12:27:58;16.50;99.90
19734;DHT22;10018;51.230;7.860;2023-05-10T12:30:27;16.40;99.90
19734;DHT22;10018;51.230;7.860;2023-05-10T12:32:58;16.50;99.90
19734;DHT22;10018;51.230;7.860;2023-05-10T12:35:24;16.40;99.90
19734;DHT22;10018;51.230;7.860;2023-05-10T12:37:53;16.40;99.90
19734;DHT22;10018;51.230;7.860;2023-05-10T12:40:18;16.30;99.90
19734;DHT22;10018;51.230;7.860;2023-05-10T12:42:44;16.10;99.90
19734;DHT22;10018;51.230;7.860;2023-05-10T12:45:11;16.00;99.90
19734;DHT22;10018;51.230;7.860;2023-05-10T12:47:37;15.90;99.90
19734;DHT22;10018;51.230;7.860;2023-05-10T12:50:03;15.90;99.90
19734;DHT22;10018;51.230;7.860;2023-05-10T12:52:29;16.00;99.90
19734;DHT22;10018;51.230;7.860;2023-05-10T12:54:55;16.00;99.90
19734;DHT22;10018;51.230;7.860;2023-05-10T12:57:20;16.10;99.90
19734;DHT22;10018;51.230;7.860;2023-05-10T12:59:51;16.20;99.90
19734;DHT22;10018;51.230;7.860;2023-05-10T13:02:17;16.40;99.90
19734;DHT22;10018;51.230;7.860;2023-05-10T13:04:46;16.60;99.90
19734;DHT22;10018;51.230;7.860;2023-05-10T13:07:12;16.60;99.90
19734;DHT22;10018;51.230;7.860;2023-05-10T13:09:39;16.60;99.90
19734;DHT22;10018;51.230;7.860;2023-05-10T13:12:08;16.70;99.90
19734;DHT22;10018;51.230;7.860;2023-05-10T13:14:34;16.60;99.90
19734;DHT22;10018;51.230;7.860;2023-05-10T13:16:59;16.60;99.90
19734;DHT22;10018;51.230;7.860;2023-05-10T13:19:25;16.50;99.90
19734;DHT22;10018;51.230;7.860;2023-05-10T13:21:51;16.50;99.90
19734;DHT22;10018;51.230;7.860;2023-05-10T13:24:17;16.60;99.90
19734;DHT22;10018;51.230;7.860;2023-05-10T13:26:43;16.70;99.90
19734;DHT22;10018;51.230;7.860;2023-05-10T13:29:09;16.80;99.90
19734;DHT22;10018;51.230;7.860;2023-05-10T13:31:34;16.80;99.90
19734;DHT22;10018;51.230;7.860;2023-05-10T13:34:01;16.90;99.90
19734;DHT22;10018;51.230;7.860;2023-05-10T13:36:26;17.00;99.90
19734;DHT22;10018;51.230;7.860;2023-05-10T13:38:52;17.20;99.90
19734;DHT22;10018;51.230;7.860;2023-05-10T13:41:18;17.30;99.90
19734;DHT22;10018;51.230;7.860;2023-05-10T13:43:43;17.30;99.90
19734;DHT22;10018;51.230;7.860;2023-05-10T13:46:09;17.20;99.90
19734;DHT22;10018;51.230;7.860;2023-05-10T13:48:34;17.10;99.90
19734;DHT22;10018;51.230;7.860;2023-05-10T13:51:02;17.00;99.90
19734;DHT22;10018;51.230;7.860;2023-05-10T13:53:30;17.00;99.90
19734;DHT22;10018;51.230;7.860;2023-05-10T13:55:56;17.10;99.90
19734;DHT22;10018;51.230;7.860;2023-05-10T13:58:22;17.00;99.90
19734;DHT22;10018;51.230;7.860;2023-05-10T14:00:48;16.90;99.90
19734;DHT22;10018;51.230;7.860;2023-05-10T14:03:16;16.80;99.90
19734;DHT22;10018;51.230;7.860;2023-05-10T14:05:44;16.80;99.90
19734;DHT22;10018;51.230;7.860;2023-05-10T14:08:10;16.70;99.90
19734;DHT22;10018;51.230;7.860;2023-05-10T14:10:38;16.70;99.90
19734;DHT22;10018;51.230;7.860;2023-05-10T14:13:04;16.70;99.90
19734;DHT22;10018;51.230;7.860;2023-05-10T14:15:30;16.60;99.90
19734;DHT22;10018;51.230;7.860;2023-05-10T14:17:56;16.60;99.90
19734;DHT22;10018;51.230;7.860;2023-05-10T14:20:21;16.60;99.90
19734;DHT22;10018;51.230;7.860;2023-05-10T14:22:47;16.50;99.90
19734;DHT22;10018;51.230;7.860;2023-05-10T14:25:13;16.50;99.90
19734;DHT22;10018;51.230;7.860;2023-05-10T14:27:39;16.60;99.90
19734;DHT22;10018;51.230;7.860;2023-05-10T14:30:05;16.60;99.90
19734;DHT22;10018;51.230;7.860;2023-05-10T14:32:31;16.70;99.90
19734;DHT22;10018;51.230;7.860;2023-05-10T14:34:57;16.70;99.90
19734;DHT22;10018;51.230;7.860;2023-05-10T14:37:25;16.80;99.90
19734;DHT22;10018;51.230;7.860;2023-05-10T14:39:51;16.90;99.90
19734;DHT22;10018;51.230;7.860;2023-05-10T14:42:17;17.00;99.90
19734;DHT22;10018;51.230;7.860;2023-05-10T14:44:45;17.10;99.90
19734;DHT22;10018;51.230;7.860;2023-05-10T14:47:11;17.30;99.90
19734;DHT22;10018;51.230;7.860;2023-05-10T14:49:36;17.50;99.90
19734;DHT22;10018;51.230;7.860;2023-05-10T14:52:02;17.50;99.90
19734;DHT22;10018;51.230;7.860;2023-05-10T14:54:28;17.50;99.90
19734;DHT22;10018;51.230;7.860;2023-05-10T14:56:54;17.40;99.90
19734;DHT22;10018;51.230;7.860;2023-05-10T14:59:20;17.30;99.90
19734;DHT22;10018;51.230;7.860;2023-05-10T15:01:46;17.40;99.90
19734;DHT22;10018;51.230;7.860;2023-05-10T15:04:11;17.30;99.90
19734;DHT22;10018;51.230;7.860;2023-05-10T15:06:38;17.20;99.90
19734;DHT22;10018;51.230;7.860;2023-05-10T15:09:04;17.10;99.90
19734;DHT22;10018;51.230;7.860;2023-05-10T15:11:30;17.10;99.90
19734;DHT22;10018;51.230;7.860;2023-05-10T15:13:57;17.00;99.90
19734;DHT22;10018;51.230;7.860;2023-05-10T15:16:22;17.00;99.90
19734;DHT22;10018;51.230;7.860;2023-05-10T15:18:48;17.10;99.90
19734;DHT22;10018;51.230;7.860;2023-05-10T15:21:13;17.10;99.90
19734;DHT22;10018;51.230;7.860;2023-05-10T15:23:39;17.20;99.90
19734;DHT22;10018;51.230;7.860;2023-05-10T15:26:05;17.20;99.90
19734;DHT22;10018;51.230;7.860;2023-05-10T15:28:33;17.20;99.90
19734;DHT22;10018;51.230;7.860;2023-05-10T15:30:58;17.30;99.90
19734;DHT22;10018;51.230;7.860;2023-05-10T15:33:26;17.50;99.90
19734;DHT22;10018;51.230;7.860;2023-05-10T15:35:52;17.60;99.90
19734;DHT22;10018;51.230;7.860;2023-05-10T15:38:19;17.70;99.90
19734;DHT22;10018;51.230;7.860;2023-05-10T15:40:47;17.70;99.90
19734;DHT22;10018;51.230;7.860;2023-05-10T15:43:15;17.80;99.90
19734;DHT22;10018;51.230;7.860;2023-05-10T15:45:41;17.80;99.90
19734;DHT22;10018;51.230;7.860;2023-05-10T15:48:07;17.90;99.90
19734;DHT22;10018;51.230;7.860;2023-05-10T15:50:32;17.90;99.90
19734;DHT22;10018;51.230;7.860;2023-05-10T15:52:58;17.90;99.90
19734;DHT22;10018;51.230;7.860;2023-05-10T15:55:23;17.80;99.90
19734;DHT22;10018;51.230;7.860;2023-05-10T15:57:51;17.80;99.90
19734;DHT22;10018;51.230;7.860;2023-05-10T16:00:17;17.80;99.90
19734;DHT22;10018;51.230;7.860;2023-05-10T16:02:43;17.70;99.90
19734;DHT22;10018;51.230;7.860;2023-05-10T16:05:09;17.50;99.90